Time;durP1;ratioP1;P1;durP2;ratioP2;P2;SDS_P1;SDS_P2;PMS_P1;PMS_P2;Temp;Humidity;BMP_temperature;BMP_pressure;BME280_temperature;BME280_humidity;BME280_pressure;Samples;Min_cycle;Max_cycle;Signal;HPM_P1;HPM_P2
2022/07/31 00:00:09;;;;;;;4.15;2.33;;;;;;;27.10;34.50;99847.56;4125205;28;20237;-30
2022/07/31 00:02:11;;;;;;;4.07;2.28;;;;;;;26.64;35.36;99848.94;4125973;28;20828;-31
2022/07/31 00:04:13;;;;;;;4.80;2.38;;;;;;;26.62;35.32;99847.53;4126086;28;20300;-30
2022/07/31 00:06:17;;;;;;;2.83;2.20;;;;;;;27.01;34.64;99839.00;4125609;28;20775;-31
2022/07/31 00:08:19;;;;;;;3.80;2.15;;;;;;;26.93;34.89;99847.72;4125996;28;20434;-32
2022/07/31 00:10:20;;;;;;;3.10;2.30;;;;;;;26.62;35.21;99850.28;4125780;28;20714;-30
2022/07/31 00:12:22;;;;;;;3.03;2.10;;;;;;;26.55;35.08;99857.88;4125195;28;20241;-29
2022/07/31 00:14:24;;;;;;;4.00;2.53;;;;;;;26.53;35.24;99850.75;4125964;28;20238;-33
2022/07/31 00:16:26;;;;;;;5.22;2.25;;;;;;;26.38;35.35;99847.09;4125361;28;20230;-31
2022/07/31 00:18:28;;;;;;;2.92;2.42;;;;;;;26.13;35.44;99843.94;4124349;28;20237;-30
2022/07/31 00:20:29;;;;;;;2.85;2.28;;;;;;;25.94;35.52;99829.06;4125004;28;20268;-31
2022/07/31 00:22:31;;;;;;;4.35;2.30;;;;;;;26.18;35.55;99840.41;4126005;28;20257;-33
2022/07/31 00:24:33;;;;;;;3.42;2.38;;;;;;;25.90;35.85;99844.25;4125122;28;20217;-32
2022/07/31 00:26:35;;;;;;;3.38;2.45;;;;;;;26.27;35.16;99824.41;4125472;28;20241;-30
2022/07/31 00:28:36;;;;;;;5.25;2.25;;;;;;;25.94;35.84;99843.50;4126041;28;20700;-31
2022/07/31 00:30:38;;;;;;;2.75;2.38;;;;;;;26.56;35.00;99837.72;4124592;28;20273;-31
2022/07/31 00:32:40;;;;;;;3.08;2.45;;;;;;;26.29;35.32;99841.31;4125794;28;20778;-31
2022/07/31 00:34:42;;;;;;;5.00;2.38;;;;;;;26.45;35.36;99844.97;4126071;28;20765;-33
2022/07/31 00:36:44;;;;;;;6.40;2.22;;;;;;;26.30;35.18;99849.25;4124493;28;20300;-32
2022/07/31 00:38:46;;;;;;;7.63;2.60;;;;;;;26.60;35.27;99847.00;4125742;28;20241;-32
2022/07/31 00:40:49;;;;;;;5.28;2.33;;;;;;;26.59;35.25;99848.06;4124251;28;20269;-30
2022/07/31 00:42:50;;;;;;;3.25;2.25;;;;;;;26.55;35.14;99847.78;4124678;28;20233;-31
2022/07/31 00:44:52;;;;;;;2.65;2.20;;;;;;;26.19;35.64;99852.97;4126188;28;20304;-31
2022/07/31 00:46:54;;;;;;;5.28;2.20;;;;;;;25.96;35.99;99840.50;4123879;28;20248;-30
2022/07/31 00:48:56;;;;;;;3.50;2.53;;;;;;;25.93;35.92;99843.72;4125336;28;20237;-33
2022/07/31 00:50:57;;;;;;;6.15;2.25;;;;;;;26.33;35.26;99840.50;4135140;28;20245;-31
2022/07/31 00:53:00;;;;;;;3.25;2.20;;;;;;;26.56;35.08;99843.16;4125878;28;20781;-32
2022/07/31 00:55:02;;;;;;;3.60;2.20;;;;;;;26.76;35.24;99842.44;4121941;28;20233;-30
2022/07/31 00:57:04;;;;;;;3.63;3.08;;;;;;;26.69;35.24;99845.44;4125476;28;20244;-32
2022/07/31 00:59:06;;;;;;;4.13;2.15;;;;;;;26.56;34.98;99846.72;4125728;28;20257;-29
2022/07/31 01:01:08;;;;;;;4.38;2.38;;;;;;;26.33;35.60;99861.50;4122997;28;20230;-29
2022/07/31 01:03:10;;;;;;;3.50;2.15;;;;;;;26.13;36.16;99851.28;4125983;28;20244;-28
2022/07/31 01:05:11;;;;;;;3.42;2.17;;;;;;;26.29;35.78;99853.03;4125867;28;20230;-30
2022/07/31 01:07:13;;;;;;;5.50;2.45;;;;;;;26.02;36.82;99858.56;4124803;28;20240;-31
2022/07/31 01:09:15;;;;;;;2.88;2.15;;;;;;;26.05;36.84;99846.28;4125651;28;20300;-31
2022/07/31 01:11:32;;;;;;;5.88;2.75;;;;;;;25.65;37.49;99842.94;4125335;28;20712;-30
2022/07/31 01:13:39;;;;;;;3.13;2.05;;;;;;;26.13;36.43;99843.94;4121877;28;20683;-30
2022/07/31 01:15:42;;;;;;;3.00;2.15;;;;;;;25.99;37.42;99847.34;4125755;28;20770;-29
2022/07/31 01:17:47;;;;;;;3.55;2.08;;;;;;;25.70;37.33;99844.88;4125529;28;20238;-29
2022/07/31 01:19:50;;;;;;;3.22;2.08;;;;;;;25.17;38.62;99842.66;4124833;28;20284;-31
2022/07/31 01:22:23;;;;;;;3.05;2.22;;;;;;;25.15;38.62;99833.91;4125315;28;20237;-30
2022/07/31 01:24:53;;;;;;;3.28;2.33;;;;;;;25.27;38.76;99831.06;4125322;28;20600;-30
2022/07/31 01:27:02;;;;;;;4.05;2.20;;;;;;;25.17;39.39;99830.94;4141143;28;20229;-29
2022/07/31 01:29:27;;;;;;;5.03;2.47;;;;;;;25.53;38.12;99812.31;4142535;28;20597;-30
2022/07/31 01:31:41;;;;;;;3.85;2.45;;;;;;;25.23;38.90;99828.03;4141502;28;20230;-30
2022/07/31 01:33:51;;;;;;;4.80;2.42;;;;;;;25.01;39.36;99830.75;4144579;28;20241;-30
2022/07/31 01:36:06;;;;;;;4.57;2.22;;;;;;;25.18;38.77;99827.16;4145340;28;20796;-30
2022/07/31 01:38:21;;;;;;;4.18;2.10;;;;;;;25.12;39.04;99822.72;4143900;28;20233;-33
2022/07/31 01:40:35;;;;;;;3.05;2.10;;;;;;;25.69;38.39;99829.63;4127588;28;20694;-32
2022/07/31 01:42:39;;;;;;;4.68;2.40;;;;;;;26.36;36.73;99835.66;4128071;28;20234;-30
2022/07/31 01:44:44;;;;;;;3.78;2.45;;;;;;;25.38;38.39;99849.19;4127630;28;20241;-33
2022/07/31 01:46:47;;;;;;;3.95;2.63;;;;;;;25.38;38.88;99853.81;4128117;28;20292;-30
2022/07/31 01:48:51;;;;;;;3.63;2.35;;;;;;;24.91;40.29;99849.69;4127889;28;20242;-31
2022/07/31 01:50:55;;;;;;;3.85;2.30;;;;;;;24.63;40.42;99840.59;4127121;28;20237;-29
2022/07/31 01:52:59;;;;;;;4.45;2.42;;;;;;;25.26;38.46;99824.00;4128059;28;20241;-29
2022/07/31 01:55:02;;;;;;;4.32;2.15;;;;;;;26.34;37.27;99827.72;4128229;28;20237;-30
2022/07/31 01:57:06;;;;;;;2.60;2.40;;;;;;;26.78;36.53;99846.56;4126315;28;20242;-31
2022/07/31 01:59:10;;;;;;;3.80;2.33;;;;;;;26.07;37.31;99855.88;4128018;28;20242;-29
2022/07/31 02:01:25;;;;;;;2.80;2.33;;;;;;;25.57;37.87;99865.16;4123155;28;20735;-30
2022/07/31 02:03:29;;;;;;;4.93;2.55;;;;;;;26.07;37.31;99850.41;4127051;28;20619;-30
2022/07/31 02:05:47;;;;;;;3.92;2.47;;;;;;;26.33;37.03;99859.59;4127757;28;20225;-30
2022/07/31 02:07:52;;;;;;;3.95;2.30;;;;;;;26.38;37.01;99867.00;4127284;28;20942;-30
2022/07/31 02:09:56;;;;;;;3.25;2.35;;;;;;;26.43;36.92;99879.84;4127201;28;20265;-29
2022/07/31 02:12:00;;;;;;;4.28;2.20;;;;;;;26.34;37.12;99879.53;4126900;28;20230;-31
2022/07/31 02:14:04;;;;;;;4.05;2.35;;;;;;;26.38;36.75;99872.44;4126563;28;20248;-30
2022/07/31 02:16:06;;;;;;;4.18;2.30;;;;;;;26.10;37.33;99877.16;4127103;28;20602;-30
2022/07/31 02:18:09;;;;;;;4.40;2.33;;;;;;;25.98;37.49;99881.94;4127411;28;20222;-29
2022/07/31 02:20:14;;;;;;;3.22;2.53;;;;;;;25.51;38.42;99877.91;4127940;28;20584;-30
2022/07/31 02:22:16;;;;;;;3.17;2.45;;;;;;;25.21;39.24;99865.56;4126451;28;20285;-31
2022/07/31 02:24:17;;;;;;;3.92;2.50;;;;;;;25.07;39.59;99858.03;4127959;28;20304;-30
2022/07/31 02:26:20;;;;;;;3.50;2.65;;;;;;;25.31;39.21;99853.16;4127308;28;20233;-30
2022/07/31 02:28:23;;;;;;;4.25;2.72;;;;;;;25.28;39.25;99848.22;4126875;28;20633;-32
2022/07/31 02:30:28;;;;;;;4.93;2.75;;;;;;;24.65;40.32;99846.59;4126581;28;20236;-31
2022/07/31 02:32:43;;;;;;;3.38;2.50;;;;;;;24.62;40.60;99827.25;4122198;28;20237;-32
2022/07/31 02:34:46;;;;;;;2.80;2.33;;;;;;;25.16;39.48;99826.59;4126685;28;20298;-31
2022/07/31 02:36:50;;;;;;;4.13;2.60;;;;;;;25.25;39.51;99830.50;4126392;28;20296;-29
2022/07/31 02:38:54;;;;;;;4.07;2.40;;;;;;;25.83;38.66;99830.00;4127384;28;20725;-31
2022/07/31 02:40:58;;;;;;;3.22;2.47;;;;;;;25.57;38.46;99849.66;4126654;28;20300;-31
2022/07/31 02:43:00;;;;;;;3.00;2.50;;;;;;;25.06;39.71;99846.34;4127148;28;20237;-30
2022/07/31 02:45:05;;;;;;;4.35;2.58;;;;;;;24.66;39.97;99847.41;4127000;28;20312;-30
2022/07/31 02:47:07;;;;;;;4.07;2.40;;;;;;;24.86;39.87;99828.66;4126481;28;20245;-30
2022/07/31 02:49:12;;;;;;;3.38;2.50;;;;;;;25.92;38.16;99825.75;4127393;28;20568;-31
2022/07/31 02:51:14;;;;;;;7.07;2.50;;;;;;;25.84;38.53;99839.84;4126235;28;20322;-31
2022/07/31 02:53:17;;;;;;;2.85;2.47;;;;;;;25.23;39.74;99849.78;4126986;28;20610;-31
2022/07/31 02:55:19;;;;;;;8.73;2.42;;;;;;;24.93;40.14;99844.00;4127394;28;20467;-31
2022/07/31 02:57:20;;;;;;;4.30;2.40;;;;;;;24.44;40.88;99825.63;4126506;28;20280;-33
2022/07/31 02:59:22;;;;;;;5.15;2.60;;;;;;;24.16;41.68;99826.50;4126879;28;20234;-29
2022/07/31 03:01:24;;;;;;;3.83;2.63;;;;;;;23.83;42.29;99818.13;4126589;28;20230;-30
2022/07/31 03:03:26;;;;;;;3.47;2.33;;;;;;;23.95;41.61;99804.47;4126489;28;20234;-31
2022/07/31 03:05:28;;;;;;;5.15;2.45;;;;;;;23.83;41.29;99811.88;4126828;28;20770;-30
2022/07/31 03:07:31;;;;;;;3.72;2.20;;;;;;;24.23;40.81;99800.88;4126543;28;20238;-31
2022/07/31 03:09:33;;;;;;;4.57;2.50;;;;;;;24.77;39.64;99807.63;4126668;28;20304;-30
2022/07/31 03:11:35;;;;;;;2.50;2.30;;;;;;;24.96;39.36;99817.09;4126039;28;20237;-30
2022/07/31 03:13:38;;;;;;;5.28;2.72;;;;;;;24.93;39.51;99825.75;4126987;28;20233;-32
2022/07/31 03:15:41;;;;;;;5.82;2.45;;;;;;;25.01;39.33;99824.50;4126578;28;20238;-29
2022/07/31 03:17:53;;;;;;;3.35;2.70;;;;;;;24.99;39.44;99830.19;4126443;28;20241;-29
2022/07/31 03:19:55;;;;;;;4.28;2.67;;;;;;;24.78;39.94;99841.88;4126640;28;20269;-30
2022/07/31 03:21:58;;;;;;;3.17;2.47;;;;;;;24.89;40.27;99829.25;4125866;28;20238;-30
2022/07/31 03:24:01;;;;;;;4.85;2.45;;;;;;;25.04;39.94;99837.63;4126442;28;20871;-30
2022/07/31 03:26:04;;;;;;;4.35;2.83;;;;;;;24.68;40.58;99837.94;4122665;28;20234;-30
2022/07/31 03:28:06;;;;;;;3.97;2.72;;;;;;;24.44;40.88;99840.03;4126235;28;20237;-30
2022/07/31 03:30:15;;;;;;;5.53;2.72;;;;;;;24.67;40.40;99825.41;4126317;28;20226;-30
2022/07/31 03:32:16;;;;;;;4.97;2.65;;;;;;;24.78;40.48;99831.81;4126641;28;20300;-32
2022/07/31 03:34:18;;;;;;;3.35;2.65;;;;;;;24.67;40.48;99838.19;4126133;28;20233;-30
2022/07/31 03:36:20;;;;;;;3.67;2.60;;;;;;;24.09;41.94;99840.25;4126061;28;20262;-31
2022/07/31 03:38:22;;;;;;;4.97;2.70;;;;;;;24.67;40.68;99838.19;4126473;28;20699;-30
2022/07/31 03:40:42;;;;;;;4.00;2.10;;;;;;;24.95;40.37;99833.66;4139672;28;20237;-31
2022/07/31 03:42:46;;;;;;;5.05;2.72;;;;;;;24.91;40.64;99836.09;4142302;28;20279;-30
2022/07/31 03:44:48;;;;;;;3.88;3.00;;;;;;;24.29;41.71;99842.50;4142882;28;20705;-31
2022/07/31 03:46:50;;;;;;;2.90;2.45;;;;;;;23.88;42.58;99841.81;4141174;28;20242;-34
2022/07/31 03:48:51;;;;;;;8.75;2.60;;;;;;;23.87;42.87;99832.03;4141976;28;20259;-33
2022/07/31 03:50:54;;;;;;;4.22;2.35;;;;;;;24.14;42.50;99824.03;4146073;28;20232;-30
2022/07/31 03:52:57;;;;;;;5.10;2.60;;;;;;;24.18;42.77;99822.53;4141855;28;20284;-32
2022/07/31 03:54:58;;;;;;;3.97;2.58;;;;;;;24.00;42.98;99833.59;4142041;28;20259;-30
2022/07/31 03:57:01;;;;;;;3.67;2.25;;;;;;;23.51;43.49;99826.75;4141064;28;20229;-30
2022/07/31 03:59:03;;;;;;;3.38;2.67;;;;;;;24.30;41.99;99825.97;4139335;28;20849;-31
2022/07/31 04:01:05;;;;;;;2.85;2.33;;;;;;;24.58;41.64;99820.66;4140353;28;20272;-30
2022/07/31 04:03:13;;;;;;;4.22;2.53;;;;;;;24.30;41.79;99833.31;4141982;28;20224;-32
2022/07/31 04:05:14;;;;;;;3.75;2.60;;;;;;;23.95;42.35;99843.28;4141543;28;20232;-32
2022/07/31 04:07:16;;;;;;;3.97;2.42;;;;;;;24.66;41.52;99815.59;4141249;28;20303;-30
2022/07/31 04:09:19;;;;;;;3.67;2.65;;;;;;;23.59;42.88;99825.56;4137002;28;20312;-30
2022/07/31 04:11:20;;;;;;;3.83;2.70;;;;;;;23.57;42.82;99833.16;4141241;28;20225;-29
2022/07/31 04:13:22;;;;;;;3.25;2.45;;;;;;;24.44;41.86;99812.03;4142062;28;20237;-30
2022/07/31 04:15:24;;;;;;;4.78;2.80;;;;;;;24.18;42.31;99814.38;4142191;28;20233;-31
2022/07/31 04:17:26;;;;;;;4.85;2.92;;;;;;;24.34;41.52;99834.44;4140522;28;20232;-30
2022/07/31 04:19:31;;;;;;;3.75;2.60;;;;;;;24.05;42.32;99839.13;4142114;28;20221;-29
2022/07/31 04:21:33;;;;;;;5.47;2.65;;;;;;;24.13;42.47;99823.22;4141845;28;20259;-32
2022/07/31 04:23:34;;;;;;;3.60;2.60;;;;;;;24.93;41.48;99844.00;4141410;28;20233;-28
2022/07/31 04:25:36;;;;;;;4.68;2.65;;;;;;;24.13;42.87;99860.44;4141938;28;20237;-30
2022/07/31 04:27:38;;;;;;;6.22;2.72;;;;;;;25.03;41.78;99847.66;4141520;28;20290;-31
2022/07/31 04:29:49;;;;;;;3.42;2.78;;;;;;;25.14;41.60;99856.78;4141346;28;20233;-31
2022/07/31 04:31:50;;;;;;;4.82;2.80;;;;;;;25.06;41.86;99849.06;4141763;28;20233;-30
2022/07/31 04:33:52;;;;;;;4.15;2.60;;;;;;;25.12;41.83;99858.94;4142004;28;20237;-32
2022/07/31 04:35:57;;;;;;;3.97;2.90;;;;;;;24.91;42.12;99854.31;4140663;28;20641;-32
2022/07/31 04:37:59;;;;;;;8.40;2.83;;;;;;;25.02;42.27;99858.78;4141862;28;20279;-32
2022/07/31 04:40:01;;;;;;;4.30;2.58;;;;;;;24.29;43.28;99867.81;4142082;28;20287;-28
2022/07/31 04:42:04;;;;;;;5.00;2.88;;;;;;;25.18;41.79;99865.25;4139448;28;20275;-32
2022/07/31 04:44:11;;;;;;;7.68;3.33;;;;;;;25.64;41.03;99870.41;4142212;28;20239;-30
2022/07/31 04:46:13;;;;;;;4.43;2.72;;;;;;;24.87;42.15;99883.91;4141682;28;20967;-32
2022/07/31 04:48:18;;;;;;;5.15;2.50;;;;;;;24.89;42.42;99876.31;4140361;28;20241;-30
2022/07/31 04:50:20;;;;;;;6.72;2.95;;;;;;;25.74;41.10;99873.22;4141763;28;20730;-32
2022/07/31 04:52:21;;;;;;;5.20;2.72;;;;;;;25.45;41.42;99884.38;4141553;28;20237;-31
2022/07/31 04:54:23;;;;;;;2.90;2.47;;;;;;;25.36;41.70;99881.28;4140144;28;20228;-30
2022/07/31 04:56:43;;;;;;;2.97;2.67;;;;;;;25.26;41.43;99893.94;4141932;28;20229;-32
2022/07/31 04:58:45;;;;;;;3.67;2.50;;;;;;;25.22;41.77;99885.41;4140468;28;20224;-28
2022/07/31 05:00:46;;;;;;;3.05;2.58;;;;;;;25.10;42.24;99895.63;4140649;28;20306;-30
2022/07/31 05:02:48;;;;;;;5.22;2.30;;;;;;;24.27;43.59;99874.53;4124581;28;20260;-31
2022/07/31 05:04:50;;;;;;;3.72;2.60;;;;;;;25.12;42.13;99863.53;4141810;28;20299;-33
2022/07/31 05:06:57;;;;;;;5.50;2.88;;;;;;;24.54;42.92;99871.97;4141006;28;20243;-32
2022/07/31 05:08:59;;;;;;;3.50;2.85;;;;;;;23.99;44.13;99870.81;4144919;28;20249;-32
2022/07/31 05:11:22;;;;;;;6.57;2.63;;;;;;;24.09;44.18;99868.28;4140405;28;20302;-32
2022/07/31 05:13:23;;;;;;;4.80;2.50;;;;;;;24.77;42.89;99868.25;4139571;28;20249;-33
2022/07/31 05:15:25;;;;;;;3.65;2.20;;;;;;;24.72;43.02;99867.34;4145101;28;20690;-29
2022/07/31 05:17:27;;;;;;;3.08;2.60;;;;;;;24.64;43.06;99874.03;4144461;28;20690;-28
2022/07/31 05:19:29;;;;;;;4.25;2.42;;;;;;;25.11;41.82;99872.78;4144087;28;20229;-28
2022/07/31 05:21:30;;;;;;;5.80;2.72;;;;;;;25.16;41.67;99881.00;4144409;28;21063;-32
2022/07/31 05:23:32;;;;;;;3.10;2.78;;;;;;;25.15;41.71;99876.63;4144902;28;20240;-29
2022/07/31 05:25:34;;;;;;;3.90;2.58;;;;;;;25.33;41.37;99883.66;4143593;28;20303;-30
2022/07/31 05:27:36;;;;;;;5.00;2.95;;;;;;;24.93;41.68;99891.03;4144467;28;20674;-31
2022/07/31 05:29:41;;;;;;;3.50;2.92;;;;;;;25.12;41.05;99886.13;4145002;28;20276;-30
2022/07/31 05:31:43;;;;;;;3.30;2.40;;;;;;;24.72;41.98;99897.25;4143508;28;20252;-29
2022/07/31 05:34:01;;;;;;;4.88;2.40;;;;;;;24.37;41.83;99907.31;4144672;28;20265;-30
2022/07/31 05:36:03;;;;;;;7.20;3.08;;;;;;;24.61;42.09;99877.22;4142449;28;20229;-31
2022/07/31 05:38:05;;;;;;;4.00;2.90;;;;;;;24.71;41.30;99885.53;4143660;28;20237;-32
2022/07/31 05:40:12;;;;;;;4.95;2.92;;;;;;;25.13;40.63;99873.34;4144611;28;20312;-31
2022/07/31 05:42:14;;;;;;;5.40;2.50;;;;;;;24.83;41.37;99882.75;4144064;28;20241;-31
2022/07/31 05:44:15;;;;;;;4.50;2.45;;;;;;;24.58;41.44;99877.72;4143770;28;20878;-30
2022/07/31 05:46:17;;;;;;;3.55;2.30;;;;;;;24.92;40.77;99889.41;4144255;28;20846;-32
2022/07/31 05:48:20;;;;;;;2.97;2.10;;;;;;;25.18;40.06;99876.13;4144191;28;20295;-30
2022/07/31 05:50:22;;;;;;;3.75;2.50;;;;;;;25.44;39.73;99871.00;4142436;28;20735;-32
2022/07/31 05:52:23;;;;;;;6.97;2.70;;;;;;;25.11;40.72;99892.66;4144075;28;20702;-31
2022/07/31 05:54:25;;;;;;;4.63;2.65;;;;;;;25.46;39.92;99877.84;4139998;28;20229;-30
2022/07/31 05:56:27;;;;;;;5.35;2.72;;;;;;;25.33;40.37;99891.81;4143512;28;20652;-30
2022/07/31 05:58:29;;;;;;;3.25;2.40;;;;;;;24.16;42.13;99889.00;4143846;28;20237;-30
2022/07/31 06:00:31;;;;;;;4.72;2.55;;;;;;;23.91;42.55;99891.03;4143295;28;20264;-31
2022/07/31 06:02:33;;;;;;;3.78;2.85;;;;;;;23.39;43.30;99883.78;4139271;28;20704;-30
2022/07/31 06:04:35;;;;;;;3.65;2.70;;;;;;;24.35;42.35;99854.31;4143431;28;20216;-29
2022/07/31 06:06:37;;;;;;;4.45;2.50;;;;;;;23.54;43.02;99890.59;4143738;28;20221;-34
2022/07/31 06:08:38;;;;;;;3.17;2.25;;;;;;;24.84;41.17;99874.34;4143020;28;20304;-32
2022/07/31 06:10:40;;;;;;;3.55;2.83;;;;;;;25.26;40.78;99866.72;4143865;28;20260;-29
2022/07/31 06:12:42;;;;;;;4.18;2.70;;;;;;;24.27;42.44;99872.66;4143217;28;20233;-31
2022/07/31 06:14:44;;;;;;;3.47;2.47;;;;;;;24.60;41.97;99870.97;4143111;28;20237;-30
2022/07/31 06:16:48;;;;;;;3.75;2.50;;;;;;;23.97;43.10;99877.53;4143679;28;20674;-29
2022/07/31 06:18:51;;;;;;;5.50;2.70;;;;;;;24.61;42.20;99866.38;4143555;28;20241;-29
2022/07/31 06:20:52;;;;;;;4.43;2.58;;;;;;;25.14;41.30;99875.81;4141984;28;20244;-31
2022/07/31 06:22:55;;;;;;;3.78;2.50;;;;;;;25.12;42.19;99871.69;4143957;28;20793;-30
2022/07/31 06:24:56;;;;;;;4.38;2.70;;;;;;;24.53;42.56;99883.94;4143738;28;20241;-30
2022/07/31 06:26:59;;;;;;;3.67;2.65;;;;;;;25.27;41.73;99874.59;4142275;28;20319;-29
2022/07/31 06:29:00;;;;;;;4.07;2.28;;;;;;;25.47;41.30;99893.09;4143789;28;20252;-30
2022/07/31 06:31:02;;;;;;;4.45;2.70;;;;;;;25.00;42.10;99896.28;4143379;28;20237;-32
2022/07/31 06:33:04;;;;;;;4.07;3.22;;;;;;;25.93;40.65;99877.25;4142816;28;20237;-30
2022/07/31 06:35:09;;;;;;;5.97;2.95;;;;;;;25.79;41.41;99900.53;4143318;28;20883;-30
2022/07/31 06:37:11;;;;;;;4.15;2.60;;;;;;;25.09;42.11;99911.13;4142874;28;20675;-30
2022/07/31 06:39:12;;;;;;;6.65;2.97;;;;;;;25.07;42.56;99905.13;4142531;28;20732;-30
2022/07/31 06:41:43;;;;;;;4.15;2.78;;;;;;;25.27;42.27;99901.81;4141605;28;20827;-31
2022/07/31 06:43:36;;;;;;;5.55;3.00;;;;;;;25.23;42.15;99897.97;4143031;28;20714;-32
2022/07/31 06:45:41;;;;;;;8.98;2.72;;;;;;;25.67;41.24;99892.50;4143634;28;20645;-30
2022/07/31 06:47:53;;;;;;;6.03;2.90;;;;;;;25.46;41.89;99898.78;4143744;28;20245;-29
2022/07/31 06:49:55;;;;;;;5.13;2.42;;;;;;;24.21;43.48;99908.13;4142681;28;20784;-31
2022/07/31 06:51:56;;;;;;;3.90;2.38;;;;;;;25.15;42.33;99877.44;4142152;28;20650;-31
2022/07/31 06:54:03;;;;;;;4.38;2.38;;;;;;;24.95;42.27;99894.34;4143279;28;20757;-32
2022/07/31 06:56:05;;;;;;;2.92;2.50;;;;;;;25.23;41.97;99881.63;4136864;28;20619;-29
2022/07/31 06:58:07;;;;;;;3.63;1.95;;;;;;;24.71;42.28;99901.84;4143012;28;20307;-31
2022/07/31 07:00:09;;;;;;;6.85;2.45;;;;;;;25.59;41.28;99898.41;4137111;28;20233;-31
2022/07/31 07:02:20;;;;;;;3.40;2.60;;;;;;;25.23;41.54;99893.34;4141574;28;20376;-30
2022/07/31 07:04:22;;;;;;;3.63;2.65;;;;;;;25.42;40.88;99896.59;4127462;28;20245;-30
2022/07/31 07:06:44;;;;;;;3.83;2.42;;;;;;;25.62;40.80;99897.09;4126231;28;20288;-32
2022/07/31 07:08:46;;;;;;;3.88;2.72;;;;;;;25.85;40.48;99896.78;4126452;28;20686;-31
2022/07/31 07:10:47;;;;;;;3.17;2.13;;;;;;;25.83;40.91;99903.53;4126742;28;20249;-31
2022/07/31 07:12:49;;;;;;;3.10;2.05;;;;;;;25.38;41.00;99924.56;4126232;28;20284;-32
2022/07/31 07:14:51;;;;;;;5.57;2.30;;;;;;;25.24;41.17;99914.03;4126147;28;20261;-31
2022/07/31 07:16:53;;;;;;;8.55;2.42;;;;;;;26.24;39.63;99904.78;4126290;28;20273;-29
2022/07/31 07:18:55;;;;;;;2.95;2.38;;;;;;;26.22;39.59;99912.41;4126767;28;20237;-33
2022/07/31 07:20:57;;;;;;;3.50;2.10;;;;;;;26.04;40.23;99904.63;4123943;28;20731;-31
2022/07/31 07:22:58;;;;;;;5.68;2.30;;;;;;;25.50;40.41;99916.28;4126942;28;20288;-30
2022/07/31 07:25:00;;;;;;;4.57;2.10;;;;;;;25.78;40.37;99913.31;4122397;28;20244;-30
2022/07/31 07:27:02;;;;;;;3.97;2.40;;;;;;;25.90;40.06;99905.00;4123563;28;20468;-30
2022/07/31 07:29:04;;;;;;;4.03;2.20;;;;;;;26.34;39.87;99912.22;4126768;28;20243;-29
2022/07/31 07:31:05;;;;;;;4.50;2.30;;;;;;;25.98;40.17;99903.72;4125562;28;20288;-32
2022/07/31 07:33:07;;;;;;;5.10;1.90;;;;;;;25.71;40.12;99903.69;4125390;28;20242;-30
2022/07/31 07:35:11;;;;;;;3.55;2.08;;;;;;;25.52;40.55;99895.06;4126182;28;20233;-30
2022/07/31 07:37:12;;;;;;;4.30;2.30;;;;;;;25.43;40.62;99897.41;4126186;28;20865;-32
2022/07/31 07:39:14;;;;;;;5.22;2.50;;;;;;;25.09;41.64;99893.97;4125597;28;20300;-30
2022/07/31 07:41:16;;;;;;;2.42;2.22;;;;;;;26.27;40.23;99887.91;4126149;28;20265;-31
2022/07/31 07:43:19;;;;;;;4.10;2.30;;;;;;;26.27;40.60;99887.91;4126315;28;20233;-31
2022/07/31 07:45:21;;;;;;;3.08;2.17;;;;;;;26.11;40.43;99891.59;4125942;28;20580;-30
2022/07/31 07:47:22;;;;;;;5.03;2.40;;;;;;;25.92;40.34;99897.38;4125783;28;20668;-31
2022/07/31 07:49:24;;;;;;;3.80;2.30;;;;;;;26.12;40.43;99885.06;4126717;28;20265;-31
2022/07/31 07:51:26;;;;;;;4.80;2.50;;;;;;;25.78;40.67;99886.09;4124675;28;20902;-33
2022/07/31 07:53:28;;;;;;;4.30;2.20;;;;;;;25.78;40.54;99891.53;4126466;28;20288;-32
2022/07/31 07:55:29;;;;;;;2.97;2.03;;;;;;;26.14;40.33;99883.72;4126664;28;20280;-34
2022/07/31 07:57:38;;;;;;;3.28;2.20;;;;;;;24.77;42.91;99886.47;4120751;28;20244;-34
2022/07/31 07:59:41;;;;;;;2.45;2.20;;;;;;;25.84;41.16;99869.78;4126662;28;20238;-30
2022/07/31 08:01:42;;;;;;;4.25;2.20;;;;;;;26.44;40.73;99863.22;4126049;28;20291;-32
2022/07/31 08:03:44;;;;;;;3.05;1.92;;;;;;;26.41;40.35;99866.47;4125423;28;20241;-30
2022/07/31 08:05:52;;;;;;;3.75;2.17;;;;;;;26.72;40.21;99869.41;4124971;28;20902;-30
2022/07/31 08:07:54;;;;;;;5.65;2.40;;;;;;;26.60;40.29;99879.72;4126017;28;20292;-32
2022/07/31 08:09:56;;;;;;;5.75;2.30;;;;;;;26.65;40.44;99871.56;4124997;28;20241;-30
2022/07/31 08:11:59;;;;;;;2.92;2.15;;;;;;;26.92;39.87;99881.53;4135580;28;20238;-30
2022/07/31 08:14:00;;;;;;;6.22;2.10;;;;;;;26.66;40.69;99867.78;4125806;28;20730;-30
2022/07/31 08:16:02;;;;;;;4.50;2.60;;;;;;;26.73;40.80;99867.53;4125497;28;20260;-30
2022/07/31 08:18:04;;;;;;;2.67;2.00;;;;;;;27.12;39.87;99869.94;4125103;28;20277;-31
2022/07/31 08:20:06;;;;;;;4.53;2.45;;;;;;;26.77;41.08;99869.44;4126255;28;20699;-30
2022/07/31 08:22:08;;;;;;;3.33;2.50;;;;;;;27.00;40.25;99870.13;4124655;28;20245;-31
2022/07/31 08:24:10;;;;;;;4.20;2.25;;;;;;;27.27;39.83;99850.88;4125988;28;20240;-34
2022/07/31 08:26:12;;;;;;;5.45;2.28;;;;;;;27.45;39.72;99865.97;4125939;28;20240;-31
2022/07/31 08:28:14;;;;;;;2.63;2.00;;;;;;;27.60;39.72;99855.06;4125384;28;20240;-31
2022/07/31 08:30:24;;;;;;;3.67;2.17;;;;;;;27.42;40.46;99870.03;4125626;28;20264;-33
2022/07/31 08:32:31;;;;;;;3.17;2.08;;;;;;;27.20;40.63;99878.44;4125602;28;20221;-31
2022/07/31 08:34:33;;;;;;;4.00;2.13;;;;;;;26.13;40.69;99873.06;4125511;28;20222;-32
2022/07/31 08:36:38;;;;;;;6.57;2.53;;;;;;;27.23;39.82;99856.06;4126065;28;20244;-31
2022/07/31 08:38:40;;;;;;;2.50;2.10;;;;;;;27.51;39.58;99864.03;4125768;28;20218;-34
2022/07/31 08:40:42;;;;;;;3.42;2.30;;;;;;;28.03;39.30;99852.13;4125127;28;20242;-31
2022/07/31 08:42:45;;;;;;;4.18;2.10;;;;;;;27.94;38.71;99862.78;4128980;28;20238;-30
2022/07/31 08:44:47;;;;;;;2.20;1.95;;;;;;;27.93;39.15;99860.31;4130123;28;20398;-30
2022/07/31 08:46:53;;;;;;;3.55;2.00;;;;;;;26.92;40.10;99874.16;4125011;28;20246;-30
2022/07/31 08:48:56;;;;;;;3.70;1.92;;;;;;;27.73;39.49;99844.72;4125867;28;20242;-32
2022/07/31 08:51:02;;;;;;;4.40;2.00;;;;;;;28.00;38.88;99856.22;4127769;28;20951;-32
2022/07/31 08:53:05;;;;;;;3.10;2.20;;;;;;;28.21;38.72;99850.78;4129789;28;20696;-31
2022/07/31 08:55:07;;;;;;;6.63;2.10;;;;;;;28.11;38.77;99856.22;4144052;28;20236;-30
2022/07/31 08:57:10;;;;;;;2.67;1.98;;;;;;;28.38;38.67;99855.97;4148604;28;20683;-31
2022/07/31 08:59:16;;;;;;;5.50;2.05;;;;;;;28.13;39.19;99862.22;4140865;28;20259;-32
2022/07/31 09:01:18;;;;;;;7.50;2.20;;;;;;;28.16;39.05;99856.25;4145572;28;20228;-34
2022/07/31 09:03:20;;;;;;;6.45;2.10;;;;;;;28.58;38.21;99855.09;4155771;28;20242;-30
2022/07/31 09:05:23;;;;;;;2.80;1.80;;;;;;;28.74;37.82;99850.44;4147799;28;20233;-32
2022/07/31 09:07:25;;;;;;;3.38;2.03;;;;;;;28.71;37.85;99849.09;4142270;28;20233;-31
2022/07/31 09:09:28;;;;;;;2.75;1.83;;;;;;;28.86;38.18;99852.84;4146116;28;20287;-33
2022/07/31 09:11:53;;;;;;;3.72;1.83;;;;;;;28.61;38.43;99850.97;4144534;28;20804;-32
2022/07/31 09:14:00;;;;;;;4.25;2.00;;;;;;;28.87;37.87;99847.09;4145452;28;20229;-31
2022/07/31 09:16:04;;;;;;;4.00;2.05;;;;;;;28.94;36.81;99852.28;4144670;28;20224;-31
2022/07/31 09:18:20;;;;;;;4.82;2.05;;;;;;;28.69;37.65;99856.72;4138489;28;20745;-31
2022/07/31 09:20:25;;;;;;;4.00;1.90;;;;;;;29.42;37.25;99833.47;4145249;28;20225;-30
2022/07/31 09:22:28;;;;;;;2.95;1.88;;;;;;;28.31;38.24;99858.97;4145559;28;20619;-31
2022/07/31 09:24:32;;;;;;;3.63;2.20;;;;;;;29.07;37.47;99831.72;4144128;28;20221;-31
2022/07/31 09:26:40;;;;;;;3.35;2.58;;;;;;;29.47;37.84;99825.22;4145692;28;20257;-30
2022/07/31 09:28:44;;;;;;;2.83;1.95;;;;;;;29.44;37.37;99836.72;4145299;28;20290;-31
2022/07/31 09:30:53;;;;;;;2.35;1.77;;;;;;;29.58;37.52;99834.16;4145431;28;20283;-32
2022/07/31 09:33:18;;;;;;;2.53;2.17;;;;;;;29.50;37.54;99820.25;4148880;28;20229;-33
2022/07/31 09:35:20;;;;;;;4.00;2.05;;;;;;;29.74;36.60;99837.63;4145872;28;21351;-31
2022/07/31 09:37:25;;;;;;;2.25;1.50;;;;;;;29.57;36.97;99838.00;4147288;28;20294;-31
2022/07/31 09:39:27;;;;;;;4.30;2.08;;;;;;;29.90;35.84;99837.53;4143923;28;20237;-31
2022/07/31 09:41:31;;;;;;;4.60;1.90;;;;;;;29.74;36.33;99843.09;4144366;28;20221;-32
2022/07/31 09:43:53;;;;;;;6.82;1.90;;;;;;;29.56;37.43;99828.16;4144445;28;20233;-33